createdAt,value
2022-08-14T00:02:02.909Z,10.32
2022-08-14T00:04:35.508Z,10.77
2022-08-14T00:07:14.759Z,9.93
2022-08-14T00:10:01.674Z,9.60
2022-08-14T00:12:42.477Z,9.48
2022-08-14T00:15:19.463Z,9.20
2022-08-14T00:17:53.440Z,9.32
2022-08-14T00:20:30.424Z,8.82
2022-08-14T00:23:00.437Z,8.93
2022-08-14T00:25:42.851Z,9.00
2022-08-14T00:28:17.853Z,8.65
2022-08-14T00:30:48.364Z,8.90
2022-08-14T00:33:17.471Z,8.95
2022-08-14T00:36:37.397Z,8.45
2022-08-14T00:38:36.792Z,8.40
2022-08-14T00:41:07.095Z,8.48
2022-08-14T00:43:41.731Z,7.60
2022-08-14T00:46:32.238Z,8.32
2022-08-14T00:49:02.129Z,8.27
2022-08-14T00:51:37.915Z,8.43
2022-08-14T00:54:16.881Z,7.72
2022-08-14T00:56:50.540Z,7.53
2022-08-14T00:59:20.461Z,8.00
2022-08-14T01:01:52.765Z,7.20
2022-08-14T01:04:51.313Z,7.30
2022-08-14T01:07:21.356Z,7.03
2022-08-14T01:09:53.387Z,7.43
2022-08-14T01:12:27.370Z,6.85
2022-08-14T01:15:02.832Z,7.00
2022-08-14T01:17:49.627Z,6.85
2022-08-14T01:20:39.855Z,6.95
2022-08-14T01:23:18.762Z,6.53
2022-08-14T01:25:51.217Z,6.45
2022-08-14T01:28:46.080Z,6.05
2022-08-14T01:31:18.532Z,6.55
2022-08-14T01:34:00.091Z,6.03
2022-08-14T01:36:41.716Z,5.75
2022-08-14T01:39:16.818Z,5.85
2022-08-14T01:41:56.227Z,5.85
2022-08-14T01:44:32.855Z,5.80
2022-08-14T01:47:05.798Z,5.57
2022-08-14T01:49:42.723Z,5.93
2022-08-14T01:52:34.421Z,5.78
2022-08-14T01:55:06.714Z,5.63
2022-08-14T01:58:00.342Z,5.90
2022-08-14T02:00:29.492Z,5.72
2022-08-14T02:03:06.804Z,5.70
2022-08-14T02:05:39.348Z,5.40
2022-08-14T02:08:10.354Z,5.53
2022-08-14T02:10:47.280Z,5.07
2022-08-14T02:13:19.125Z,5.30
2022-08-14T02:15:48.644Z,5.93
2022-08-14T02:18:20.512Z,5.63
2022-08-14T02:20:51.359Z,5.90
2022-08-14T02:23:31.916Z,5.60
2022-08-14T02:26:24.160Z,5.28
2022-08-14T02:29:00.370Z,5.28
2022-08-14T02:31:42.291Z,5.15
2022-08-14T02:34:22.355Z,5.25
2022-08-14T02:37:04.765Z,4.88
2022-08-14T02:39:40.581Z,5.55
2022-08-14T02:42:13.626Z,4.97
2022-08-14T02:44:49.447Z,5.53
2022-08-14T02:47:21.142Z,5.32
2022-08-14T02:49:54.824Z,4.95
2022-08-14T02:52:55.845Z,5.13
2022-08-14T02:55:15.768Z,5.22
2022-08-14T02:58:03.316Z,5.13
2022-08-14T03:00:40.071Z,5.07
2022-08-14T03:03:09.611Z,4.90
2022-08-14T03:05:41.260Z,5.70
2022-08-14T03:08:17.111Z,5.05
2022-08-14T03:10:50.025Z,5.28
2022-08-14T03:13:22.617Z,4.75
2022-08-14T03:15:56.125Z,5.22
2022-08-14T03:18:32.615Z,4.90
2022-08-14T03:21:04.470Z,4.97
2022-08-14T03:23:38.707Z,5.18
2022-08-14T03:26:13.163Z,6.20
2022-08-14T03:28:51.205Z,5.95
2022-08-14T03:31:22.119Z,5.60
2022-08-14T03:33:56.018Z,5.60
2022-08-14T03:37:39.532Z,5.15
2022-08-14T03:39:21.518Z,5.03
2022-08-14T03:41:54.633Z,6.38
2022-08-14T03:45:27.291Z,6.72
2022-08-14T03:47:15.309Z,7.68
2022-08-14T03:49:50.073Z,6.70
2022-08-14T03:52:38.871Z,7.32
2022-08-14T03:55:12.344Z,6.80
2022-08-14T03:57:41.602Z,6.78
2022-08-14T04:00:43.426Z,6.57
2022-08-14T04:03:08.487Z,6.45
2022-08-14T04:05:42.818Z,6.05
2022-08-14T04:08:29.502Z,5.97
2022-08-14T04:11:00.824Z,6.05
2022-08-14T04:13:31.748Z,6.22
2022-08-14T04:16:05.168Z,6.18
2022-08-14T04:18:40.052Z,5.43
2022-08-14T04:21:11.492Z,5.00
2022-08-14T04:23:40.313Z,4.97
2022-08-14T04:26:15.023Z,5.13
2022-08-14T04:29:07.053Z,4.97
2022-08-14T04:32:58.926Z,4.88
2022-08-14T04:34:41.816Z,4.97
2022-08-14T04:37:28.202Z,4.65
2022-08-14T04:40:23.500Z,4.70
2022-08-14T04:43:17.746Z,4.68
2022-08-14T04:45:51.273Z,4.28
2022-08-14T04:48:39.394Z,4.47
2022-08-14T04:51:14.539Z,4.78
2022-08-14T04:53:46.638Z,4.63
2022-08-14T04:56:34.347Z,4.80
2022-08-14T04:59:10.005Z,5.10
2022-08-14T05:01:48.975Z,4.60
2022-08-14T05:04:21.362Z,4.63
2022-08-14T05:06:54.198Z,5.30
2022-08-14T05:09:24.682Z,4.80
2022-08-14T05:12:04.240Z,5.30
2022-08-14T05:14:55.076Z,4.63
2022-08-14T05:17:31.888Z,5.10
2022-08-14T05:21:04.276Z,4.95
2022-08-14T05:23:05.671Z,4.70
2022-08-14T05:25:39.250Z,5.03
2022-08-14T05:28:12.449Z,4.75
2022-08-14T05:30:46.666Z,5.55
2022-08-14T05:33:19.751Z,6.03
2022-08-14T05:35:51.036Z,6.05
2022-08-14T05:38:31.315Z,6.05
2022-08-14T05:41:00.765Z,5.82
2022-08-14T05:43:41.148Z,6.00
2022-08-14T05:46:15.266Z,6.20
2022-08-14T05:48:45.375Z,6.72
2022-08-14T05:51:15.684Z,7.20
2022-08-14T05:54:00.337Z,7.00
2022-08-14T05:56:33.803Z,7.35
2022-08-14T05:59:07.403Z,7.68
2022-08-14T06:01:36.561Z,7.97
2022-08-14T06:04:06.583Z,7.88
2022-08-14T06:06:38.184Z,7.18
2022-08-14T06:09:10.044Z,7.38
2022-08-14T06:11:40.801Z,7.97
2022-08-14T06:14:12.404Z,7.80
2022-08-14T06:16:49.674Z,8.38
2022-08-14T06:19:24.623Z,8.77
2022-08-14T06:21:59.217Z,8.68
2022-08-14T06:24:35.047Z,8.57
2022-08-14T06:27:06.085Z,8.88
2022-08-14T06:29:40.741Z,8.77
2022-08-14T06:32:37.967Z,9.00
2022-08-14T06:35:02.380Z,9.20
2022-08-14T06:37:47.023Z,9.23
2022-08-14T06:40:27.220Z,9.73
2022-08-14T06:43:00.284Z,9.52
2022-08-14T06:45:31.880Z,10.13
2022-08-14T06:48:01.329Z,9.27
2022-08-14T06:50:33.506Z,9.82
2022-08-14T06:53:03.110Z,10.30
2022-08-14T06:55:34.442Z,10.02
2022-08-14T06:58:05.880Z,10.63
2022-08-14T07:01:11.695Z,10.45
2022-08-14T07:03:58.388Z,10.05
2022-08-14T07:06:46.241Z,10.65
2022-08-14T07:09:22.452Z,10.38
2022-08-14T07:11:51.740Z,10.77
2022-08-14T07:14:23.379Z,10.82
2022-08-14T07:16:52.450Z,10.48
2022-08-14T07:19:23.238Z,11.07
2022-08-14T07:21:51.512Z,10.75
2022-08-14T07:24:26.460Z,10.70
2022-08-14T07:27:00.094Z,10.57
2022-08-14T07:29:29.135Z,10.10
2022-08-14T07:32:00.468Z,11.00
2022-08-14T07:34:40.644Z,10.20
2022-08-14T07:37:09.847Z,11.05
2022-08-14T07:39:39.455Z,11.05
2022-08-14T07:42:15.387Z,10.15
2022-08-14T07:44:50.321Z,10.35
2022-08-14T07:47:21.554Z,10.73
2022-08-14T07:50:03.177Z,11.98
2022-08-14T07:52:32.656Z,10.68
2022-08-14T07:55:02.464Z,10.57
2022-08-14T07:57:31.589Z,10.70
2022-08-14T07:59:59.818Z,11.02
2022-08-14T08:02:32.781Z,11.23
2022-08-14T08:05:05.453Z,11.05
2022-08-14T08:07:34.320Z,10.80
2022-08-14T08:10:46.781Z,10.60
2022-08-14T08:13:24.709Z,10.85
2022-08-14T08:16:00.494Z,11.05
2022-08-14T08:18:32.396Z,10.25
2022-08-14T08:21:07.577Z,10.93
2022-08-14T08:23:40.803Z,10.98
2022-08-14T08:26:21.343Z,11.45
2022-08-14T08:28:57.931Z,11.02
2022-08-14T08:31:32.899Z,10.82
2022-08-14T08:34:07.233Z,11.32
2022-08-14T08:36:46.843Z,10.48
2022-08-14T08:39:22.348Z,10.43
2022-08-14T08:41:56.030Z,10.52
2022-08-14T08:44:35.336Z,11.05
2022-08-14T08:47:06.489Z,10.13
2022-08-14T08:49:43.196Z,10.55
2022-08-14T08:52:24.614Z,10.18
2022-08-14T08:54:58.781Z,11.30
2022-08-14T08:57:28.369Z,10.38
2022-08-14T09:00:00.659Z,10.30
2022-08-14T09:02:32.455Z,10.45
2022-08-14T09:05:07.430Z,11.00
2022-08-14T09:07:36.781Z,10.38
2022-08-14T09:10:05.507Z,10.25
2022-08-14T09:12:38.693Z,10.90
2022-08-14T09:15:11.883Z,10.70
2022-08-14T09:17:42.733Z,10.82
2022-08-14T09:20:12.841Z,10.13
2022-08-14T09:22:48.191Z,10.85
2022-08-14T09:25:19.883Z,11.35
2022-08-14T09:28:08.694Z,10.25
2022-08-14T09:30:40.831Z,11.00
2022-08-14T09:33:32.854Z,10.23
2022-08-14T09:36:26.828Z,10.02
2022-08-14T09:39:21.180Z,10.07
2022-08-14T09:42:20.089Z,9.63
2022-08-14T09:45:11.815Z,11.05
2022-08-14T09:47:51.828Z,10.30
2022-08-14T09:50:26.901Z,10.07
2022-08-14T09:52:59.161Z,10.05
2022-08-14T09:55:36.763Z,9.93
2022-08-14T09:58:14.821Z,9.88
2022-08-14T10:00:50.525Z,10.18
2022-08-14T10:03:33.050Z,10.13
2022-08-14T10:06:10.719Z,9.82
2022-08-14T10:08:44.873Z,9.95
2022-08-14T10:11:31.082Z,10.18
2022-08-14T10:14:21.113Z,10.35
2022-08-14T10:17:08.418Z,9.45
2022-08-14T10:19:48.883Z,10.10
2022-08-14T10:23:15.574Z,10.02
2022-08-14T10:25:14.332Z,9.85
2022-08-14T10:27:46.491Z,9.60
2022-08-14T10:30:22.809Z,10.38
2022-08-14T10:32:55.973Z,9.88
2022-08-14T10:35:31.145Z,10.48
2022-08-14T10:38:01.903Z,9.73
2022-08-14T10:40:38.011Z,10.88
2022-08-14T10:43:25.784Z,10.75
2022-08-14T10:46:04.170Z,10.35
2022-08-14T10:49:00.887Z,10.27
2022-08-14T10:51:33.888Z,9.88
2022-08-14T10:54:26.138Z,10.02
2022-08-14T10:56:58.805Z,10.23
2022-08-14T10:59:30.619Z,11.05
2022-08-14T11:02:04.804Z,10.82
2022-08-14T11:04:35.794Z,10.57
2022-08-14T11:07:21.221Z,10.07
2022-08-14T11:09:55.630Z,11.05
2022-08-14T11:12:34.983Z,10.35
2022-08-14T11:15:12.592Z,10.77
2022-08-14T11:17:42.091Z,11.07
2022-08-14T11:20:19.993Z,10.52
2022-08-14T11:22:57.979Z,10.20
2022-08-14T11:25:43.547Z,10.88
2022-08-14T11:28:19.159Z,11.20
2022-08-14T11:30:53.661Z,11.13
2022-08-14T11:33:24.735Z,10.63
2022-08-14T11:35:59.698Z,10.82
2022-08-14T11:38:32.457Z,10.82
2022-08-14T11:41:01.303Z,11.75
2022-08-14T11:43:30.584Z,11.25
2022-08-14T11:46:03.749Z,11.70
2022-08-14T11:49:02.642Z,10.48
2022-08-14T11:51:30.643Z,10.50
2022-08-14T11:54:08.247Z,11.40
2022-08-14T11:56:37.232Z,11.50
2022-08-14T11:59:10.282Z,11.50
2022-08-14T12:01:41.402Z,10.95
2022-08-14T12:04:21.848Z,10.63
2022-08-14T12:07:08.180Z,10.10
2022-08-14T12:09:37.938Z,10.95
2022-08-14T12:12:16.171Z,11.52
2022-08-14T12:15:03.926Z,11.43
2022-08-14T12:17:49.404Z,11.55
2022-08-14T12:20:30.088Z,10.25
2022-08-14T12:23:05.581Z,11.50
2022-08-14T12:25:37.903Z,11.27
2022-08-14T12:28:27.325Z,10.85
2022-08-14T12:31:02.877Z,10.75
2022-08-14T12:33:34.463Z,10.45
2022-08-14T12:36:06.313Z,11.25
2022-08-14T12:38:43.512Z,10.95
2022-08-14T12:41:20.581Z,10.38
2022-08-14T12:43:53.688Z,10.20
2022-08-14T12:46:28.629Z,10.95
2022-08-14T12:48:58.916Z,10.48
2022-08-14T12:51:28.445Z,10.88
2022-08-14T12:54:05.218Z,10.15
2022-08-14T12:56:49.075Z,10.27
2022-08-14T12:59:18.963Z,10.15
2022-08-14T13:01:59.278Z,10.25
2022-08-14T13:04:35.426Z,10.82
2022-08-14T13:07:12.941Z,10.02
2022-08-14T13:09:45.071Z,10.23
2022-08-14T13:12:31.934Z,9.93
2022-08-14T13:15:08.849Z,9.70
2022-08-14T13:17:44.007Z,9.75
2022-08-14T13:20:23.265Z,9.75
2022-08-14T13:22:56.207Z,9.55
2022-08-14T13:25:31.807Z,9.00
2022-08-14T13:28:05.203Z,9.02
2022-08-14T13:30:44.451Z,8.98
2022-08-14T13:33:16.624Z,8.98
2022-08-14T13:35:52.447Z,9.20
2022-08-14T13:38:22.990Z,8.45
2022-08-14T13:40:57.055Z,8.05
2022-08-14T13:43:31.406Z,7.95
2022-08-14T13:46:08.959Z,8.50
2022-08-14T13:48:39.973Z,6.63
2022-08-14T13:51:17.191Z,7.07
2022-08-14T13:54:07.057Z,7.53
2022-08-14T13:57:07.118Z,8.20
2022-08-14T13:59:45.063Z,7.38
2022-08-14T14:02:31.555Z,7.70
2022-08-14T14:05:08.439Z,7.03
2022-08-14T14:07:39.369Z,7.25
2022-08-14T14:10:12.011Z,6.15
2022-08-14T14:12:56.155Z,6.20
2022-08-14T14:15:33.873Z,6.75
2022-08-14T14:18:15.318Z,6.57
2022-08-14T14:21:02.853Z,6.72
2022-08-14T14:23:37.523Z,6.97
2022-08-14T14:26:08.069Z,7.60
2022-08-14T14:28:46.145Z,7.43
2022-08-14T14:31:15.019Z,6.97
2022-08-14T14:33:52.246Z,7.20
2022-08-14T14:36:28.964Z,7.50
2022-08-14T14:39:01.227Z,7.15
2022-08-14T14:41:38.112Z,6.93
2022-08-14T14:44:21.771Z,7.05
2022-08-14T14:46:53.219Z,6.82
2022-08-14T14:49:31.864Z,7.20
2022-08-14T14:52:26.999Z,7.22
2022-08-14T14:54:58.834Z,7.32
2022-08-14T14:57:35.603Z,6.97
2022-08-14T15:00:12.943Z,7.28
2022-08-14T15:02:46.136Z,7.53
2022-08-14T15:05:17.299Z,7.38
2022-08-14T15:07:50.111Z,7.43
2022-08-14T15:10:27.415Z,7.70
2022-08-14T15:13:03.745Z,7.32
2022-08-14T15:15:37.245Z,7.47
2022-08-14T15:18:36.149Z,7.40
2022-08-14T15:20:58.140Z,7.97
2022-08-14T15:23:32.288Z,8.30
2022-08-14T15:26:30.931Z,8.35
2022-08-14T15:29:05.717Z,8.35
2022-08-14T15:31:37.527Z,7.97
2022-08-14T15:34:44.603Z,7.90
2022-08-14T15:37:12.614Z,8.50
2022-08-14T15:39:42.197Z,8.15
2022-08-14T15:42:14.797Z,7.93
2022-08-14T15:44:58.414Z,8.68
2022-08-14T15:47:32.235Z,8.85
2022-08-14T15:50:04.875Z,9.05
2022-08-14T15:52:37.039Z,9.60
2022-08-14T15:55:13.053Z,9.35
2022-08-14T15:58:02.232Z,10.00
2022-08-14T16:00:54.371Z,10.02
2022-08-14T16:03:27.008Z,9.80
2022-08-14T16:06:03.070Z,8.38
2022-08-14T16:08:32.893Z,8.48
2022-08-14T16:11:03.357Z,8.15
2022-08-14T16:13:39.740Z,8.77
2022-08-14T16:16:34.736Z,9.07
2022-08-14T16:19:09.663Z,9.10
2022-08-14T16:22:02.648Z,8.73
2022-08-14T16:27:38.681Z,8.73
2022-08-14T16:30:25.588Z,9.35
2022-08-14T16:33:01.213Z,8.77
2022-08-14T16:35:55.743Z,8.80
2022-08-14T16:38:45.620Z,9.20
2022-08-14T16:41:21.998Z,8.88
2022-08-14T16:43:53.705Z,9.10
2022-08-14T16:46:34.778Z,9.32
2022-08-14T16:49:06.130Z,8.95
2022-08-14T16:51:42.044Z,9.85
2022-08-14T16:54:33.909Z,9.55
2022-08-14T16:57:18.537Z,9.25
2022-08-14T16:59:57.312Z,9.95
2022-08-14T17:02:39.997Z,8.93
2022-08-14T17:05:22.440Z,9.80
2022-08-14T17:08:32.370Z,9.77
2022-08-14T17:11:09.691Z,10.18
2022-08-14T17:13:59.591Z,10.32
2022-08-14T17:16:37.491Z,10.13
2022-08-14T17:19:09.934Z,9.90
2022-08-14T17:21:47.412Z,10.30
2022-08-14T17:24:56.538Z,9.50
2022-08-14T17:27:08.737Z,9.73
2022-08-14T17:29:54.295Z,9.90
2022-08-14T17:32:56.153Z,10.50
2022-08-14T17:35:57.761Z,9.85
2022-08-14T17:38:38.812Z,9.73
2022-08-14T17:41:37.459Z,9.45
2022-08-14T17:44:21.914Z,9.43
2022-08-14T17:46:55.261Z,9.68
2022-08-14T17:49:28.198Z,10.30
2022-08-14T17:52:07.879Z,10.18
2022-08-14T17:54:59.094Z,10.23
2022-08-14T17:57:35.470Z,11.20
2022-08-14T18:00:14.585Z,9.90
2022-08-14T18:02:51.062Z,10.10
2022-08-14T18:05:23.341Z,10.60
2022-08-14T18:08:33.557Z,10.93
2022-08-14T18:11:06.986Z,10.93
2022-08-14T18:13:50.985Z,11.20
2022-08-14T18:16:22.136Z,10.68
2022-08-14T18:18:51.580Z,10.77
2022-08-14T18:21:25.634Z,8.98
2022-08-14T18:24:28.258Z,7.72
2022-08-14T18:27:03.456Z,5.00
2022-08-14T18:29:54.943Z,3.78
2022-08-14T18:32:46.222Z,4.15
2022-08-14T18:35:21.114Z,3.28
2022-08-14T18:37:55.880Z,3.10
2022-08-14T18:40:34.440Z,3.28
2022-08-14T18:43:03.260Z,3.33
2022-08-14T18:45:41.478Z,4.13
2022-08-14T18:48:28.404Z,4.13
2022-08-14T18:51:04.913Z,5.07
2022-08-14T18:53:52.344Z,5.03
2022-08-14T18:56:40.892Z,6.20
2022-08-14T18:59:35.458Z,4.85
2022-08-14T19:02:43.034Z,5.82
2022-08-14T19:05:13.480Z,5.30
2022-08-14T19:07:43.622Z,5.70
2022-08-14T19:10:31.710Z,6.40
2022-08-14T19:13:12.076Z,5.93
2022-08-14T19:15:43.791Z,6.50
2022-08-14T19:18:25.851Z,6.38
2022-08-14T19:20:59.519Z,6.07
2022-08-14T19:23:43.036Z,6.82
2022-08-14T19:26:34.058Z,6.93
2022-08-14T19:29:23.992Z,7.38
2022-08-14T19:31:55.738Z,7.22
2022-08-14T19:34:40.456Z,8.20
2022-08-14T19:37:48.458Z,7.90
2022-08-14T19:40:34.060Z,7.55
2022-08-14T19:43:03.342Z,7.28
2022-08-14T19:45:35.182Z,7.43
2022-08-14T19:48:05.262Z,7.53
2022-08-14T19:50:40.854Z,7.90
2022-08-14T19:53:17.220Z,7.78
2022-08-14T19:56:01.267Z,8.50
2022-08-14T19:58:55.159Z,7.90
2022-08-14T20:01:36.419Z,8.18
2022-08-14T20:04:45.332Z,8.63
2022-08-14T20:07:01.857Z,7.88
2022-08-14T20:11:03.514Z,8.68
2022-08-14T20:12:35.552Z,7.82
2022-08-14T20:15:47.167Z,7.53
2022-08-14T20:18:49.568Z,22.15
2022-08-14T20:21:15.094Z,8.85
2022-08-14T20:23:43.356Z,9.00
2022-08-14T20:26:30.763Z,8.43
2022-08-14T20:29:07.340Z,8.23
2022-08-14T20:31:38.427Z,8.38
2022-08-14T20:34:15.988Z,8.98
2022-08-14T20:37:10.023Z,9.18
2022-08-14T20:39:43.655Z,9.80
2022-08-14T20:42:43.772Z,9.18
2022-08-14T20:45:19.841Z,8.63
2022-08-14T20:47:55.937Z,9.77
2022-08-14T20:50:28.801Z,9.68
2022-08-14T20:52:58.359Z,8.68
2022-08-14T20:55:30.094Z,9.00
2022-08-14T20:58:09.599Z,8.57
2022-08-14T21:00:52.671Z,9.38
2022-08-14T21:03:35.884Z,9.48
2022-08-14T21:06:29.476Z,9.10
2022-08-14T21:09:01.851Z,9.07
2022-08-14T21:11:34.397Z,9.23
2022-08-14T21:14:20.695Z,9.77
2022-08-14T21:16:58.534Z,9.38
2022-08-14T21:19:30.219Z,9.57
2022-08-14T21:22:01.425Z,9.48
2022-08-14T21:24:47.084Z,8.80
2022-08-14T21:27:21.670Z,10.35
2022-08-14T21:29:54.992Z,9.32
2022-08-14T21:32:47.120Z,9.45
2022-08-14T21:35:24.490Z,9.68
2022-08-14T21:37:55.557Z,9.93
2022-08-14T21:40:42.404Z,9.32
2022-08-14T21:43:17.562Z,8.43
2022-08-14T21:45:51.658Z,10.15
2022-08-14T21:48:21.767Z,10.20
2022-08-14T21:51:02.030Z,10.32
2022-08-14T21:53:58.872Z,10.60
2022-08-14T21:56:38.197Z,10.38
2022-08-14T21:59:10.400Z,9.95
2022-08-14T22:02:00.172Z,9.25
2022-08-14T22:04:32.632Z,10.30
2022-08-14T22:07:07.370Z,9.40
2022-08-14T22:09:37.249Z,9.05
2022-08-14T22:12:47.367Z,9.07
2022-08-14T22:15:07.404Z,10.13
2022-08-14T22:17:36.374Z,10.50
2022-08-14T22:20:16.411Z,9.60
2022-08-14T22:22:56.121Z,10.15
2022-08-14T22:25:33.140Z,9.57
2022-08-14T22:28:04.377Z,9.90
2022-08-14T22:30:34.264Z,10.10
2022-08-14T22:33:06.726Z,10.18
2022-08-14T22:35:39.014Z,11.10
2022-08-14T22:38:35.707Z,10.90
2022-08-14T22:41:25.386Z,11.20
2022-08-14T22:43:51.221Z,10.95
2022-08-14T22:46:20.763Z,10.90
2022-08-14T22:48:51.068Z,10.68
2022-08-14T22:51:25.545Z,10.60
2022-08-14T22:54:00.389Z,11.55
2022-08-14T22:56:34.325Z,11.30
2022-08-14T22:59:09.520Z,11.55
2022-08-14T23:01:56.985Z,11.60
2022-08-14T23:04:34.740Z,11.10
2022-08-14T23:07:21.945Z,11.75
2022-08-14T23:09:57.001Z,11.00
2022-08-14T23:12:29.299Z,11.93
2022-08-14T23:15:00.400Z,11.23
2022-08-14T23:17:39.132Z,11.88
2022-08-14T23:20:19.231Z,11.50
2022-08-14T23:22:52.637Z,11.52
2022-08-14T23:25:57.290Z,12.00
2022-08-14T23:28:34.736Z,11.77
2022-08-14T23:31:09.296Z,11.55
2022-08-14T23:33:46.144Z,12.02
2022-08-14T23:36:31.582Z,11.88
2022-08-14T23:39:07.106Z,11.70
2022-08-14T23:41:46.267Z,12.40
2022-08-14T23:44:24.538Z,12.20
2022-08-14T23:47:00.565Z,11.38
2022-08-14T23:50:00.968Z,11.70
2022-08-14T23:52:50.151Z,12.55
2022-08-14T23:55:11.137Z,12.32
